sensor_id;sensor_type;location;lat;lon;timestamp;pressure;altitude;pressure_sealevel;temperature;humidity
55301;BME280;58302;51.446;-2.000;2024-02-14T00:00:39;100336.28;;;10.06;100.00
55301;BME280;58302;51.446;-2.000;2024-02-14T00:03:07;100331.91;;;10.05;100.00
55301;BME280;58302;51.446;-2.000;2024-02-14T00:05:33;100341.72;;;10.06;100.00
55301;BME280;58302;51.446;-2.000;2024-02-14T00:08:01;100328.38;;;10.04;100.00
55301;BME280;58302;51.446;-2.000;2024-02-14T00:10:29;100338.19;;;10.06;100.00
55301;BME280;58302;51.446;-2.000;2024-02-14T00:12:55;100338.19;;;10.06;100.00
55301;BME280;58302;51.446;-2.000;2024-02-14T00:15:25;100329.75;;;10.07;100.00
55301;BME280;58302;51.446;-2.000;2024-02-14T00:17:52;100330.31;;;10.09;100.00
55301;BME280;58302;51.446;-2.000;2024-02-14T00:20:19;100323.75;;;10.05;100.00
55301;BME280;58302;51.446;-2.000;2024-02-14T00:22:46;100343.34;;;10.07;100.00
55301;BME280;58302;51.446;-2.000;2024-02-14T00:25:12;100340.63;;;10.07;100.00
55301;BME280;58302;51.446;-2.000;2024-02-14T00:27:39;100337.63;;;10.09;100.00
55301;BME280;58302;51.446;-2.000;2024-02-14T00:30:09;100334.66;;;10.15;100.00
55301;BME280;58302;51.446;-2.000;2024-02-14T00:32:37;100336.59;;;10.20;100.00
55301;BME280;58302;51.446;-2.000;2024-02-14T00:35:04;100334.69;;;10.20;100.00
55301;BME280;58302;51.446;-2.000;2024-02-14T00:37:36;100332.75;;;10.16;100.00
55301;BME280;58302;51.446;-2.000;2024-02-14T00:40:02;100331.13;;;10.10;100.00
55301;BME280;58302;51.446;-2.000;2024-02-14T00:42:29;100334.38;;;10.07;100.00
55301;BME280;58302;51.446;-2.000;2024-02-14T00:44:55;100324.00;;;9.98;100.00
55301;BME280;58302;51.446;-2.000;2024-02-14T00:47:23;100331.91;;;10.00;100.00
55301;BME280;58302;51.446;-2.000;2024-02-14T00:49:49;100337.84;;;9.97;100.00
55301;BME280;58302;51.446;-2.000;2024-02-14T00:52:18;100340.56;;;9.97;100.00
55301;BME280;58302;51.446;-2.000;2024-02-14T00:54:47;100347.59;;;9.93;100.00
55301;BME280;58302;51.446;-2.000;2024-02-14T00:57:14;100350.88;;;9.95;100.00
55301;BME280;58302;51.446;-2.000;2024-02-14T00:59:41;100335.41;;;9.95;100.00
55301;BME280;58302;51.446;-2.000;2024-02-14T01:02:07;100345.75;;;10.03;100.00
55301;BME280;58302;51.446;-2.000;2024-02-14T01:04:33;100346.06;;;10.07;100.00
55301;BME280;58302;51.446;-2.000;2024-02-14T01:07:03;100353.94;;;10.14;100.00
55301;BME280;58302;51.446;-2.000;2024-02-14T01:09:31;100349.88;;;10.16;100.00
55301;BME280;58302;51.446;-2.000;2024-02-14T01:11:59;100355.31;;;10.21;100.00
55301;BME280;58302;51.446;-2.000;2024-02-14T01:14:27;100352.38;;;10.23;100.00
55301;BME280;58302;51.446;-2.000;2024-02-14T01:16:54;100348.06;;;10.27;100.00
55301;BME280;58302;51.446;-2.000;2024-02-14T01:19:19;100345.09;;;10.28;100.00
55301;BME280;58302;51.446;-2.000;2024-02-14T01:21:48;100348.88;;;10.33;100.00
55301;BME280;58302;51.446;-2.000;2024-02-14T01:24:15;100347.81;;;10.34;100.00
55301;BME280;58302;51.446;-2.000;2024-02-14T01:26:43;100338.59;;;10.35;100.00
55301;BME280;58302;51.446;-2.000;2024-02-14T01:29:10;100336.41;;;10.37;100.00
55301;BME280;58302;51.446;-2.000;2024-02-14T01:31:37;100331.56;;;10.39;100.00
55301;BME280;58302;51.446;-2.000;2024-02-14T01:34:02;100333.72;;;10.42;100.00
55301;BME280;58302;51.446;-2.000;2024-02-14T01:36:29;100326.94;;;10.39;100.00
55301;BME280;58302;51.446;-2.000;2024-02-14T01:38:55;100322.84;;;10.42;100.00
55301;BME280;58302;51.446;-2.000;2024-02-14T01:41:22;100331.00;;;10.47;100.00
55301;BME280;58302;51.446;-2.000;2024-02-14T01:43:49;100323.13;;;10.45;100.00
55301;BME280;58302;51.446;-2.000;2024-02-14T01:46:15;100323.41;;;10.44;100.00
55301;BME280;58302;51.446;-2.000;2024-02-14T01:48:42;100318.81;;;10.49;100.00
55301;BME280;58302;51.446;-2.000;2024-02-14T01:51:11;100318.53;;;10.46;100.00
55301;BME280;58302;51.446;-2.000;2024-02-14T01:53:39;100318.53;;;10.46;100.00
55301;BME280;58302;51.446;-2.000;2024-02-14T01:56:06;100319.63;;;10.50;100.00
55301;BME280;58302;51.446;-2.000;2024-02-14T01:58:33;100320.16;;;10.52;100.00
55301;BME280;58302;51.446;-2.000;2024-02-14T02:01:00;100320.44;;;10.50;100.00
55301;BME280;58302;51.446;-2.000;2024-02-14T02:03:26;100309.84;;;10.54;100.00
55301;BME280;58302;51.446;-2.000;2024-02-14T02:05:53;100308.75;;;10.60;100.00
55301;BME280;58302;51.446;-2.000;2024-02-14T02:08:22;100295.19;;;10.65;100.00
55301;BME280;58302;51.446;-2.000;2024-02-14T02:10:48;100300.38;;;10.67;100.00
55301;BME280;58302;51.446;-2.000;2024-02-14T02:13:15;100298.47;;;10.67;100.00
55301;BME280;58302;51.446;-2.000;2024-02-14T02:15:41;100301.44;;;10.71;100.00
55301;BME280;58302;51.446;-2.000;2024-02-14T02:18:11;100300.38;;;10.72;100.00
55301;BME280;58302;51.446;-2.000;2024-02-14T02:20:37;100298.72;;;10.76;100.00
55301;BME280;58302;51.446;-2.000;2024-02-14T02:23:03;100297.09;;;10.80;100.00
55301;BME280;58302;51.446;-2.000;2024-02-14T02:25:30;100271.03;;;10.84;100.00
55301;BME280;58302;51.446;-2.000;2024-02-14T02:27:56;100281.63;;;10.86;100.00
55301;BME280;58302;51.446;-2.000;2024-02-14T02:30:23;100286.25;;;10.85;100.00
55301;BME280;58302;51.446;-2.000;2024-02-14T02:32:50;100263.97;;;10.83;100.00
55301;BME280;58302;51.446;-2.000;2024-02-14T02:35:17;100273.72;;;10.79;100.00
55301;BME280;58302;51.446;-2.000;2024-02-14T02:37:46;100264.75;;;10.78;100.00
55301;BME280;58302;51.446;-2.000;2024-02-14T02:40:15;100244.63;;;10.69;100.00
55301;BME280;58302;51.446;-2.000;2024-02-14T02:42:43;100253.59;;;10.70;100.00
55301;BME280;58302;51.446;-2.000;2024-02-14T02:45:13;100243.81;;;10.69;100.00
55301;BME280;58302;51.446;-2.000;2024-02-14T02:47:39;100248.44;;;10.68;100.00
55301;BME280;58302;51.446;-2.000;2024-02-14T02:50:06;100248.72;;;10.62;100.00
55301;BME280;58302;51.446;-2.000;2024-02-14T02:52:34;100248.44;;;10.53;100.00
55301;BME280;58302;51.446;-2.000;2024-02-14T02:55:01;100256.03;;;10.51;100.00
55301;BME280;58302;51.446;-2.000;2024-02-14T02:57:28;100257.38;;;10.53;100.00
55301;BME280;58302;51.446;-2.000;2024-02-14T02:59:56;100243.53;;;10.60;100.00
55301;BME280;58302;51.446;-2.000;2024-02-14T03:02:23;100253.34;;;10.61;100.00
55301;BME280;58302;51.446;-2.000;2024-02-14T03:04:51;100255.50;;;10.59;100.00
55301;BME280;58302;51.446;-2.000;2024-02-14T03:07:19;100240.84;;;10.50;100.00
55301;BME280;58302;51.446;-2.000;2024-02-14T03:09:49;100243.56;;;10.50;100.00
55301;BME280;58302;51.446;-2.000;2024-02-14T03:12:17;100245.69;;;10.48;100.00
55301;BME280;58302;51.446;-2.000;2024-02-14T03:14:44;100244.06;;;10.47;100.00
55301;BME280;58302;51.446;-2.000;2024-02-14T03:17:11;100243.00;;;10.53;100.00
55301;BME280;58302;51.446;-2.000;2024-02-14T03:19:40;100278.31;;;10.58;100.00
55301;BME280;58302;51.446;-2.000;2024-02-14T03:22:06;100264.75;;;10.58;100.00
55301;BME280;58302;51.446;-2.000;2024-02-14T03:24:34;100268.84;;;10.61;100.00
55301;BME280;58302;51.446;-2.000;2024-02-14T03:27:03;100270.72;;;10.60;100.00
55301;BME280;58302;51.446;-2.000;2024-02-14T03:29:32;100269.66;;;10.66;100.00
55301;BME280;58302;51.446;-2.000;2024-02-14T03:32:00;100265.03;;;10.67;100.00
55301;BME280;58302;51.446;-2.000;2024-02-14T03:34:30;100266.66;;;10.68;100.00
55301;BME280;58302;51.446;-2.000;2024-02-14T03:36:59;100269.91;;;10.70;100.00
55301;BME280;58302;51.446;-2.000;2024-02-14T03:39:31;100264.22;;;10.71;100.00
55301;BME280;58302;51.446;-2.000;2024-02-14T03:41:58;100264.19;;;10.76;100.00
55301;BME280;58302;51.446;-2.000;2024-02-14T03:44:29;100257.13;;;10.75;100.00
55301;BME280;58302;51.446;-2.000;2024-02-14T03:46:56;100250.34;;;10.73;100.00
55301;BME280;58302;51.446;-2.000;2024-02-14T03:49:23;100245.47;;;10.75;100.00
55301;BME280;58302;51.446;-2.000;2024-02-14T03:51:51;100245.72;;;10.73;100.00
55301;BME280;58302;51.446;-2.000;2024-02-14T03:54:21;100247.34;;;10.74;100.00
55301;BME280;58302;51.446;-2.000;2024-02-14T03:56:47;100247.91;;;10.71;100.00
55301;BME280;58302;51.446;-2.000;2024-02-14T03:59:14;100235.16;;;10.72;100.00
55301;BME280;58302;51.446;-2.000;2024-02-14T04:01:46;100242.72;;;10.70;100.00
55301;BME280;58302;51.446;-2.000;2024-02-14T04:04:12;100239.75;;;10.71;100.00
55301;BME280;58302;51.446;-2.000;2024-02-14T04:06:37;100249.78;;;10.71;100.00
55301;BME280;58302;51.446;-2.000;2024-02-14T04:09:04;100238.38;;;10.69;100.00
55301;BME280;58302;51.446;-2.000;2024-02-14T04:11:30;100247.34;;;10.69;100.00
55301;BME280;58302;51.446;-2.000;2024-02-14T04:13:56;100238.66;;;10.72;100.00
55301;BME280;58302;51.446;-2.000;2024-02-14T04:16:22;100240.03;;;10.75;100.00
55301;BME280;58302;51.446;-2.000;2024-02-14T04:18:48;100238.94;;;10.76;100.00
55301;BME280;58302;51.446;-2.000;2024-02-14T04:21:14;100235.69;;;10.74;100.00
55301;BME280;58302;51.446;-2.000;2024-02-14T04:23:40;100234.31;;;10.71;100.00
55301;BME280;58302;51.446;-2.000;2024-02-14T04:26:06;100233.50;;;10.71;100.00
55301;BME280;58302;51.446;-2.000;2024-02-14T04:28:33;100244.91;;;10.73;100.00
55301;BME280;58302;51.446;-2.000;2024-02-14T04:30:59;100235.94;;;10.72;100.00
55301;BME280;58302;51.446;-2.000;2024-02-14T04:33:25;100248.47;;;10.78;100.00
55301;BME280;58302;51.446;-2.000;2024-02-14T04:35:51;100255.00;;;10.82;100.00
55301;BME280;58302;51.446;-2.000;2024-02-14T04:38:17;100242.75;;;10.90;100.00
55301;BME280;58302;51.446;-2.000;2024-02-14T04:40:45;100243.28;;;10.92;100.00
55301;BME280;58302;51.446;-2.000;2024-02-14T04:43:12;100247.91;;;10.97;100.00
55301;BME280;58302;51.446;-2.000;2024-02-14T04:45:38;100253.91;;;10.99;100.00
55301;BME280;58302;51.446;-2.000;2024-02-14T04:48:04;100255.78;;;10.98;100.00
55301;BME280;58302;51.446;-2.000;2024-02-14T04:50:30;100248.47;;;10.94;100.00
55301;BME280;58302;51.446;-2.000;2024-02-14T04:52:57;100258.78;;;10.92;100.00
55301;BME280;58302;51.446;-2.000;2024-02-14T04:55:23;100267.75;;;10.92;100.00
55301;BME280;58302;51.446;-2.000;2024-02-14T04:57:49;100274.81;;;10.93;100.00
55301;BME280;58302;51.446;-2.000;2024-02-14T05:00:15;100270.47;;;10.97;100.00
55301;BME280;58302;51.446;-2.000;2024-02-14T05:02:41;100272.38;;;10.97;100.00
55301;BME280;58302;51.446;-2.000;2024-02-14T05:05:07;100260.41;;;10.98;100.00
55301;BME280;58302;51.446;-2.000;2024-02-14T05:07:34;100254.16;;;10.97;100.00
55301;BME280;58302;51.446;-2.000;2024-02-14T05:10:00;100254.97;;;10.98;100.00
55301;BME280;58302;51.446;-2.000;2024-02-14T05:12:27;100247.09;;;11.01;100.00
55301;BME280;58302;51.446;-2.000;2024-02-14T05:14:53;100249.00;;;11.01;100.00
55301;BME280;58302;51.446;-2.000;2024-02-14T05:17:19;100252.53;;;11.01;100.00
55301;BME280;58302;51.446;-2.000;2024-02-14T05:19:46;100258.25;;;11.00;100.00
55301;BME280;58302;51.446;-2.000;2024-02-14T05:22:12;100258.25;;;11.00;100.00
55301;BME280;58302;51.446;-2.000;2024-02-14T05:24:38;100252.00;;;10.99;100.00
55301;BME280;58302;51.446;-2.000;2024-02-14T05:27:04;100254.16;;;11.02;100.00
55301;BME280;58302;51.446;-2.000;2024-02-14T05:29:31;100246.28;;;11.01;100.00
55301;BME280;58302;51.446;-2.000;2024-02-14T05:31:57;100256.88;;;11.02;100.00
55301;BME280;58302;51.446;-2.000;2024-02-14T05:34:23;100250.34;;;11.03;100.00
55301;BME280;58302;51.446;-2.000;2024-02-14T05:36:49;100253.63;;;11.05;100.00
55301;BME280;58302;51.446;-2.000;2024-02-14T05:39:15;100245.47;;;11.05;100.00
55301;BME280;58302;51.446;-2.000;2024-02-14T05:41:41;100242.19;;;11.03;100.00
55301;BME280;58302;51.446;-2.000;2024-02-14T05:44:07;100249.00;;;11.01;100.00
55301;BME280;58302;51.446;-2.000;2024-02-14T05:46:33;100263.69;;;11.00;100.00
55301;BME280;58302;51.446;-2.000;2024-02-14T05:49:00;100262.59;;;10.96;100.00
55301;BME280;58302;51.446;-2.000;2024-02-14T05:51:27;100267.75;;;10.92;100.00
55301;BME280;58302;51.446;-2.000;2024-02-14T05:53:57;100262.88;;;10.84;100.00
55301;BME280;58302;51.446;-2.000;2024-02-14T05:56:23;100275.91;;;10.87;100.00
55301;BME280;58302;51.446;-2.000;2024-02-14T05:58:50;100272.94;;;10.84;100.00
55301;BME280;58302;51.446;-2.000;2024-02-14T06:01:19;100281.09;;;10.84;100.00
55301;BME280;58302;51.446;-2.000;2024-02-14T06:03:47;100277.25;;;10.79;100.00
55301;BME280;58302;51.446;-2.000;2024-02-14T06:06:22;100281.88;;;10.79;100.00
55301;BME280;58302;51.446;-2.000;2024-02-14T06:09:30;100287.59;;;10.77;100.00
55301;BME280;58302;51.446;-2.000;2024-02-14T06:13:17;100274.25;;;10.66;100.00
55301;BME280;58302;51.446;-2.000;2024-02-14T06:16:22;100285.13;;;10.66;100.00
55301;BME280;58302;51.446;-2.000;2024-02-14T06:18:50;100300.09;;;10.73;100.00
55301;BME280;58302;51.446;-2.000;2024-02-14T06:21:25;100303.31;;;10.65;100.00
55301;BME280;58302;51.446;-2.000;2024-02-14T06:23:53;100322.66;;;10.74;100.00
55301;BME280;58302;51.446;-2.000;2024-02-14T06:26:20;100335.44;;;10.73;100.00
55301;BME280;58302;51.446;-2.000;2024-02-14T06:28:48;100344.38;;;10.69;100.00
55301;BME280;58302;51.446;-2.000;2024-02-14T06:31:17;100340.59;;;10.75;100.00
55301;BME280;58302;51.446;-2.000;2024-02-14T06:33:44;100349.56;;;10.75;100.00
55301;BME280;58302;51.446;-2.000;2024-02-14T06:36:12;100351.75;;;10.78;100.00
55301;BME280;58302;51.446;-2.000;2024-02-14T06:38:40;100363.16;;;10.80;100.00
55301;BME280;58302;51.446;-2.000;2024-02-14T06:41:06;100363.44;;;10.79;100.00
55301;BME280;58302;51.446;-2.000;2024-02-14T06:43:32;100387.66;;;10.86;100.00
55301;BME280;58302;51.446;-2.000;2024-02-14T06:46:01;100372.16;;;10.86;100.00
55301;BME280;58302;51.446;-2.000;2024-02-14T06:48:28;100373.53;;;10.89;100.00
55301;BME280;58302;51.446;-2.000;2024-02-14T06:50:55;100366.44;;;10.93;100.00
55301;BME280;58302;51.446;-2.000;2024-02-14T06:53:22;100360.47;;;10.96;100.00
55301;BME280;58302;51.446;-2.000;2024-02-14T06:55:48;100357.75;;;10.96;100.00
55301;BME280;58302;51.446;-2.000;2024-02-14T06:58:14;100356.66;;;10.97;100.00
55301;BME280;58302;51.446;-2.000;2024-02-14T07:00:41;100362.38;;;11.00;100.00
55301;BME280;58302;51.446;-2.000;2024-02-14T07:03:07;100369.75;;;11.00;100.00
55301;BME280;58302;51.446;-2.000;2024-02-14T07:05:34;100361.59;;;11.00;100.00
55301;BME280;58302;51.446;-2.000;2024-02-14T07:08:00;100359.69;;;11.00;100.00
55301;BME280;58302;51.446;-2.000;2024-02-14T07:10:26;100358.88;;;11.05;100.00
55301;BME280;58302;51.446;-2.000;2024-02-14T07:12:54;100361.03;;;11.03;100.00
55301;BME280;58302;51.446;-2.000;2024-02-14T07:15:20;100343.88;;;11.02;100.00
55301;BME280;58302;51.446;-2.000;2024-02-14T07:17:47;100336.31;;;11.04;100.00
55301;BME280;58302;51.446;-2.000;2024-02-14T07:20:14;100335.44;;;11.04;100.00
55301;BME280;58302;51.446;-2.000;2024-02-14T07:22:42;100349.34;;;11.07;100.00
55301;BME280;58302;51.446;-2.000;2024-02-14T07:25:08;100358.31;;;11.08;100.00
55301;BME280;58302;51.446;-2.000;2024-02-14T07:27:36;100364.28;;;11.15;100.00
55301;BME280;58302;51.446;-2.000;2024-02-14T07:30:02;100345.53;;;11.14;100.00
55301;BME280;58302;51.446;-2.000;2024-02-14T07:32:28;100357.22;;;11.14;100.00
55301;BME280;58302;51.446;-2.000;2024-02-14T07:34:54;100363.75;;;11.18;100.00
55301;BME280;58302;51.446;-2.000;2024-02-14T07:37:20;100351.25;;;11.17;100.00
55301;BME280;58302;51.446;-2.000;2024-02-14T07:39:46;100352.88;;;11.23;100.00
55301;BME280;58302;51.446;-2.000;2024-02-14T07:42:13;100353.97;;;11.22;100.00
55301;BME280;58302;51.446;-2.000;2024-02-14T07:44:39;100358.31;;;11.23;100.00
55301;BME280;58302;51.446;-2.000;2024-02-14T07:47:05;100364.56;;;11.24;100.00
55301;BME280;58302;51.446;-2.000;2024-02-14T07:49:31;100363.75;;;11.23;100.00
55301;BME280;58302;51.446;-2.000;2024-02-14T07:51:58;100362.66;;;11.24;100.00
55301;BME280;58302;51.446;-2.000;2024-02-14T07:54:24;100355.88;;;11.22;100.00
55301;BME280;58302;51.446;-2.000;2024-02-14T07:56:50;100369.72;;;11.20;100.00
55301;BME280;58302;51.446;-2.000;2024-02-14T07:59:16;100371.09;;;11.18;100.00
55301;BME280;58302;51.446;-2.000;2024-02-14T08:08:28;100381.44;;;11.16;100.00
55301;BME280;58302;51.446;-2.000;2024-02-14T08:11:04;100395.31;;;11.14;100.00
55301;BME280;58302;51.446;-2.000;2024-02-14T08:13:34;100403.75;;;11.13;100.00
55301;BME280;58302;51.446;-2.000;2024-02-14T08:16:05;100403.75;;;11.13;100.00
55301;BME280;58302;51.446;-2.000;2024-02-14T08:18:39;100405.09;;;11.10;100.00
55301;BME280;58302;51.446;-2.000;2024-02-14T08:21:10;100411.88;;;11.07;100.00
55301;BME280;58302;51.446;-2.000;2024-02-14T08:23:39;100416.00;;;11.10;100.00
55301;BME280;58302;51.446;-2.000;2024-02-14T08:26:17;100414.31;;;11.09;100.00
55301;BME280;58302;51.446;-2.000;2024-02-14T08:28:55;100414.31;;;11.09;100.00
55301;BME280;58302;51.446;-2.000;2024-02-14T08:31:21;100423.31;;;11.09;100.00
55301;BME280;58302;51.446;-2.000;2024-02-14T08:34:00;100421.69;;;11.14;100.00
55301;BME280;58302;51.446;-2.000;2024-02-14T08:36:27;100433.94;;;11.16;100.00
55301;BME280;58302;51.446;-2.000;2024-02-14T08:39:17;100442.38;;;11.20;100.00
55301;BME280;58302;51.446;-2.000;2024-02-14T08:41:58;100436.38;;;11.18;100.00
55301;BME280;58302;51.446;-2.000;2024-02-14T08:44:28;100448.09;;;11.18;100.00
55301;BME280;58302;51.446;-2.000;2024-02-14T08:46:55;100448.63;;;11.20;100.00
55301;BME280;58302;51.446;-2.000;2024-02-14T08:49:23;100447.00;;;11.19;100.00
55301;BME280;58302;51.446;-2.000;2024-02-14T08:51:52;100455.16;;;11.24;100.00
55301;BME280;58302;51.446;-2.000;2024-02-14T08:54:18;100450.81;;;11.23;100.00
55301;BME280;58302;51.446;-2.000;2024-02-14T08:56:54;100450.53;;;11.25;100.00
55301;BME280;58302;51.446;-2.000;2024-02-14T08:59:21;100432.88;;;11.27;100.00
55301;BME280;58302;51.446;-2.000;2024-02-14T09:01:48;100438.31;;;11.32;100.00
55301;BME280;58302;51.446;-2.000;2024-02-14T09:04:15;100430.16;;;11.32;100.00
55301;BME280;58302;51.446;-2.000;2024-02-14T09:06:42;100429.88;;;11.34;100.00
55301;BME280;58302;51.446;-2.000;2024-02-14T09:09:11;100430.97;;;11.38;100.00
55301;BME280;58302;51.446;-2.000;2024-02-14T09:11:39;100440.78;;;11.39;100.00
55301;BME280;58302;51.446;-2.000;2024-02-14T09:14:06;100433.44;;;11.45;100.00
55301;BME280;58302;51.446;-2.000;2024-02-14T09:16:33;100431.25;;;11.47;100.00
55301;BME280;58302;51.446;-2.000;2024-02-14T09:19:00;100432.63;;;11.54;100.00
55301;BME280;58302;51.446;-2.000;2024-02-14T09:21:27;100419.03;;;11.59;100.00
55301;BME280;58302;51.446;-2.000;2024-02-14T09:23:56;100425.28;;;11.60;100.00
55301;BME280;58302;51.446;-2.000;2024-02-14T09:26:22;100426.34;;;11.69;100.00
55301;BME280;58302;51.446;-2.000;2024-02-14T09:28:49;100420.66;;;11.71;100.00
55301;BME280;58302;51.446;-2.000;2024-02-14T09:31:19;100403.75;;;11.74;100.00
55301;BME280;58302;51.446;-2.000;2024-02-14T09:33:48;100405.16;;;11.81;100.00
55301;BME280;58302;51.446;-2.000;2024-02-14T09:36:15;100413.84;;;11.83;100.00
55301;BME280;58302;51.446;-2.000;2024-02-14T09:38:42;100405.69;;;11.83;100.00
55301;BME280;58302;51.446;-2.000;2024-02-14T09:41:18;100402.94;;;11.89;100.00
55301;BME280;58302;51.446;-2.000;2024-02-14T09:43:45;100403.47;;;11.91;100.00
55301;BME280;58302;51.446;-2.000;2024-02-14T09:46:13;100408.63;;;11.97;100.00
55301;BME280;58302;51.446;-2.000;2024-02-14T09:48:44;100413.25;;;12.07;100.00
55301;BME280;58302;51.446;-2.000;2024-02-14T09:51:11;100414.63;;;12.09;100.00
55301;BME280;58302;51.446;-2.000;2024-02-14T09:53:41;100411.34;;;12.07;100.00
55301;BME280;58302;51.446;-2.000;2024-02-14T09:56:11;100408.88;;;12.11;100.00
55301;BME280;58302;51.446;-2.000;2024-02-14T09:58:37;100407.78;;;12.12;100.00
55301;BME280;58302;51.446;-2.000;2024-02-14T10:01:05;100390.63;;;12.11;100.00
55301;BME280;58302;51.446;-2.000;2024-02-14T10:03:33;100401.53;;;12.11;100.00
55301;BME280;58302;51.446;-2.000;2024-02-14T10:05:59;100403.72;;;12.09;100.00
55301;BME280;58302;51.446;-2.000;2024-02-14T10:08:26;100412.72;;;12.10;100.00
55301;BME280;58302;51.446;-2.000;2024-02-14T10:10:53;100414.31;;;12.16;100.00
55301;BME280;58302;51.446;-2.000;2024-02-14T10:13:19;100407.25;;;12.20;100.00
55301;BME280;58302;51.446;-2.000;2024-02-14T10:15:45;100403.66;;;12.30;100.00
55301;BME280;58302;51.446;-2.000;2024-02-14T10:18:11;100386.47;;;12.34;100.00
55301;BME280;58302;51.446;-2.000;2024-02-14T10:20:37;100382.38;;;12.37;100.00
55301;BME280;58302;51.446;-2.000;2024-02-14T10:23:10;100375.56;;;12.34;100.00
55301;BME280;58302;51.446;-2.000;2024-02-14T10:25:36;100376.63;;;12.44;100.00
55301;BME280;58302;51.446;-2.000;2024-02-14T10:28:07;100365.16;;;12.47;100.00
55301;BME280;58302;51.446;-2.000;2024-02-14T10:30:37;100376.84;;;12.52;100.00
55301;BME280;58302;51.446;-2.000;2024-02-14T10:33:07;100374.66;;;12.59;100.00
55301;BME280;58302;51.446;-2.000;2024-02-14T10:35:35;100368.91;;;12.61;100.00
55301;BME280;58302;51.446;-2.000;2024-02-14T10:38:03;100376.50;;;12.69;100.00
55301;BME280;58302;51.446;-2.000;2024-02-14T10:40:32;100366.06;;;12.81;100.00
55301;BME280;58302;51.446;-2.000;2024-02-14T10:42:58;100358.94;;;12.85;100.00
55301;BME280;58302;51.446;-2.000;2024-02-14T10:45:24;100366.84;;;12.87;100.00
55301;BME280;58302;51.446;-2.000;2024-02-14T10:47:53;100356.16;;;12.96;100.00
55301;BME280;58302;51.446;-2.000;2024-02-14T10:50:21;100353.59;;;13.09;100.00
55301;BME280;58302;51.446;-2.000;2024-02-14T10:52:48;100347.31;;;13.14;100.00
55301;BME280;58302;51.446;-2.000;2024-02-14T10:55:16;100346.72;;;13.22;100.00
55301;BME280;58302;51.446;-2.000;2024-02-14T10:57:43;100345.28;;;13.30;100.00
55301;BME280;58302;51.446;-2.000;2024-02-14T11:00:12;100342.72;;;13.43;100.00
55301;BME280;58302;51.446;-2.000;2024-02-14T11:02:42;100338.66;;;13.41;100.00
55301;BME280;58302;51.446;-2.000;2024-02-14T11:05:12;100349.09;;;13.29;100.00
55301;BME280;58302;51.446;-2.000;2024-02-14T11:07:47;100348.03;;;13.30;100.00
55301;BME280;58302;51.446;-2.000;2024-02-14T11:10:16;100347.69;;;13.36;100.00
55301;BME280;58302;51.446;-2.000;2024-02-14T11:12:42;100351.19;;;13.42;100.00
55301;BME280;58302;51.446;-2.000;2024-02-14T11:15:14;100346.38;;;13.29;100.00
55301;BME280;58302;51.446;-2.000;2024-02-14T11:17:42;100359.50;;;13.27;100.00
55301;BME280;58302;51.446;-2.000;2024-02-14T11:20:16;100358.19;;;13.24;100.00
55301;BME280;58302;51.446;-2.000;2024-02-14T11:22:53;100354.09;;;13.16;100.00
55301;BME280;58302;51.446;-2.000;2024-02-14T11:25:32;100354.09;;;13.16;100.00
55301;BME280;58302;51.446;-2.000;2024-02-14T11:28:00;100351.09;;;13.13;100.00
55301;BME280;58302;51.446;-2.000;2024-02-14T11:30:40;100352.91;;;13.33;100.00
55301;BME280;58302;51.446;-2.000;2024-02-14T11:35:42;100342.88;;;13.57;100.00
55301;BME280;58302;51.446;-2.000;2024-02-14T11:38:09;100352.38;;;13.60;100.00
55301;BME280;58302;51.446;-2.000;2024-02-14T11:40:36;100330.84;;;13.58;100.00
55301;BME280;58302;51.446;-2.000;2024-02-14T11:43:04;100332.84;;;13.48;100.00
55301;BME280;58302;51.446;-2.000;2024-02-14T11:45:30;100331.69;;;13.54;100.00
55301;BME280;58302;51.446;-2.000;2024-02-14T11:47:56;100331.44;;;13.50;100.00
55301;BME280;58302;51.446;-2.000;2024-02-14T11:50:22;100321.28;;;13.56;100.00
55301;BME280;58302;51.446;-2.000;2024-02-14T11:52:48;100326.78;;;13.51;100.00
55301;BME280;58302;51.446;-2.000;2024-02-14T11:55:17;100318.03;;;13.54;100.00
55301;BME280;58302;51.446;-2.000;2024-02-14T11:57:44;100322.88;;;13.62;100.00
55301;BME280;58302;51.446;-2.000;2024-02-14T12:00:14;100317.66;;;13.65;100.00
55301;BME280;58302;51.446;-2.000;2024-02-14T12:02:40;100310.88;;;13.63;100.00
55301;BME280;58302;51.446;-2.000;2024-02-14T12:05:06;100313.75;;;13.71;100.00
55301;BME280;58302;51.446;-2.000;2024-02-14T12:07:32;100318.16;;;13.67;100.00
55301;BME280;58302;51.446;-2.000;2024-02-14T12:09:58;100319.28;;;13.66;100.00
55301;BME280;58302;51.446;-2.000;2024-02-14T12:12:24;100328.81;;;13.69;100.00
55301;BME280;58302;51.446;-2.000;2024-02-14T12:14:53;100333.97;;;13.70;100.00
55301;BME280;58302;51.446;-2.000;2024-02-14T12:17:19;100327.75;;;13.65;100.00
55301;BME280;58302;51.446;-2.000;2024-02-14T12:19:47;100335.72;;;13.61;100.00
55301;BME280;58302;51.446;-2.000;2024-02-14T12:22:17;100331.00;;;13.67;100.00
55301;BME280;58302;51.446;-2.000;2024-02-14T12:24:44;100344.34;;;13.74;100.00
55301;BME280;58302;51.446;-2.000;2024-02-14T12:27:10;100341.72;;;13.87;100.00
55301;BME280;58302;51.446;-2.000;2024-02-14T12:29:37;100347.66;;;13.94;100.00
55301;BME280;58302;51.446;-2.000;2024-02-14T12:32:06;100354.06;;;14.09;100.00
55301;BME280;58302;51.446;-2.000;2024-02-14T12:34:33;100349.41;;;14.09;100.00
55301;BME280;58302;51.446;-2.000;2024-02-14T12:36:59;100349.53;;;14.23;100.00
55301;BME280;58302;51.446;-2.000;2024-02-14T12:39:26;100350.78;;;14.31;100.00
55301;BME280;58302;51.446;-2.000;2024-02-14T12:41:52;100353.69;;;14.39;100.00
55301;BME280;58302;51.446;-2.000;2024-02-14T12:44:19;100345.19;;;14.41;100.00